Chamois, Missouri
Current Conditions -  °F | °C
As of 1:53 AM on Saturday 20 Dec 2014 (Local Time) from KJEF Reporting Station
Haze Haze  
Wind Chill: 36°   Ceiling: 1000
Heat Index: 36°   Visibility: 5mi
Dew Point: 33°   Wind: 3mph
Humidity: 89%   Direction: 110°ESE
Pressure: 30.23"   Gusts: NA
Location:  38.68°N, 91.77°W
Report Text: KJEF 200753Z AUTO 11003KT 5SM BR OVC010 02/01 A3023 RMK AO2 SLP231 T00220006
Loading
Personal Weather Stations






























Interactive Weather Map New forecast layout! Learn more

10-Day Weather Forecast

Advertisements
Track Severe Weather on mobile